createdAt,value
2023-05-21T00:00:11.984Z,15.25
2023-05-21T00:02:44.265Z,15.25
2023-05-21T00:05:15.040Z,15.25
2023-05-21T00:07:44.020Z,15.24
2023-05-21T00:10:12.143Z,15.26
2023-05-21T00:12:41.168Z,15.27
2023-05-21T00:15:10.192Z,15.28
2023-05-21T00:17:39.482Z,15.32
2023-05-21T00:20:08.584Z,15.32
2023-05-21T00:22:36.970Z,15.33
2023-05-21T00:25:05.529Z,15.31
2023-05-21T00:27:33.211Z,15.31
2023-05-21T00:30:01.540Z,15.31
2023-05-21T00:32:30.423Z,15.31
2023-05-21T00:34:58.340Z,15.31
2023-05-21T00:37:26.294Z,15.28
2023-05-21T00:39:55.713Z,15.26
2023-05-21T00:42:25.770Z,15.25
2023-05-21T00:44:54.002Z,15.22
2023-05-21T00:47:22.271Z,15.18
2023-05-21T00:49:52.568Z,15.14
2023-05-21T00:52:21.089Z,15.09
2023-05-21T00:54:51.964Z,15.04
2023-05-21T00:57:23.523Z,15.01
2023-05-21T00:59:53.926Z,14.98
2023-05-21T01:02:23.756Z,14.95
2023-05-21T01:04:55.860Z,14.93
2023-05-21T01:07:24.152Z,14.93
2023-05-21T01:09:53.766Z,14.93
2023-05-21T01:12:24.934Z,14.90
2023-05-21T01:14:54.711Z,14.89
2023-05-21T01:17:23.973Z,14.84
2023-05-21T01:19:54.178Z,14.83
2023-05-21T01:22:24.596Z,14.85
2023-05-21T01:24:55.100Z,14.85
2023-05-21T01:27:23.037Z,14.87
2023-05-21T01:29:51.488Z,14.89
2023-05-21T01:32:36.837Z,14.88
2023-05-21T01:35:11.138Z,14.88
2023-05-21T01:38:05.326Z,14.85
2023-05-21T01:40:47.814Z,14.82
2023-05-21T01:43:16.519Z,14.82
2023-05-21T01:45:46.544Z,14.83
2023-05-21T01:48:16.877Z,14.83
2023-05-21T01:50:45.933Z,14.83
2023-05-21T01:53:15.346Z,14.85
2023-05-21T01:55:43.416Z,14.86
2023-05-21T01:58:11.355Z,14.87
2023-05-21T02:00:39.883Z,14.88
2023-05-21T02:03:08.398Z,14.90
2023-05-21T02:05:36.752Z,14.91
2023-05-21T02:08:07.098Z,14.92
2023-05-21T02:10:36.085Z,14.91
2023-05-21T02:13:04.184Z,14.91
2023-05-21T02:15:33.973Z,14.93
2023-05-21T02:18:02.096Z,14.93
2023-05-21T02:20:40.510Z,14.95
2023-05-21T02:23:08.455Z,14.95
2023-05-21T02:25:38.025Z,14.95
2023-05-21T02:28:09.157Z,14.93
2023-05-21T02:30:40.729Z,14.90
2023-05-21T02:33:09.494Z,14.88
2023-05-21T02:35:38.295Z,14.85
2023-05-21T02:38:08.119Z,14.83
2023-05-21T02:40:36.553Z,14.81
2023-05-21T02:43:04.454Z,14.79
2023-05-21T02:45:32.680Z,14.77
2023-05-21T02:48:02.141Z,14.73
2023-05-21T02:50:31.115Z,14.71
2023-05-21T02:52:59.797Z,14.67
2023-05-21T02:55:28.625Z,14.65
2023-05-21T02:57:58.253Z,14.64
2023-05-21T03:00:26.743Z,14.65
2023-05-21T03:02:55.286Z,14.69
2023-05-21T03:05:23.957Z,14.86
2023-05-21T03:07:52.782Z,15.04
2023-05-21T03:10:21.271Z,15.18
2023-05-21T03:12:49.184Z,15.26
2023-05-21T03:15:18.212Z,15.32
2023-05-21T03:17:46.150Z,15.64
2023-05-21T03:20:15.804Z,16.13
2023-05-21T03:22:45.274Z,16.55
2023-05-21T03:25:14.709Z,16.64
2023-05-21T03:27:43.100Z,16.88
2023-05-21T03:30:13.851Z,17.40
2023-05-21T03:32:45.563Z,17.83
2023-05-21T03:35:14.985Z,18.36
2023-05-21T03:37:43.217Z,18.95
2023-05-21T03:40:12.915Z,19.50
2023-05-21T03:42:41.140Z,20.03
2023-05-21T03:45:10.204Z,20.61
2023-05-21T03:47:54.713Z,21.18
2023-05-21T03:50:23.026Z,21.73
2023-05-21T03:52:51.459Z,22.24
2023-05-21T03:55:19.211Z,22.75
2023-05-21T03:57:51.420Z,23.26
2023-05-21T04:00:19.713Z,23.73
2023-05-21T04:02:52.625Z,24.18
2023-05-21T04:05:22.629Z,24.46
2023-05-21T04:07:52.131Z,24.72
2023-05-21T04:10:20.054Z,25.04
2023-05-21T04:12:49.946Z,25.31
2023-05-21T04:15:19.184Z,25.59
2023-05-21T04:17:47.297Z,25.90
2023-05-21T04:20:16.672Z,26.23
2023-05-21T04:22:46.846Z,26.42
2023-05-21T04:25:15.032Z,26.68
2023-05-21T04:27:43.205Z,26.94
2023-05-21T04:30:11.340Z,27.23
2023-05-21T04:32:40.198Z,27.54
2023-05-21T04:35:09.753Z,27.78
2023-05-21T04:37:39.986Z,28.03
2023-05-21T04:40:10.094Z,28.25
2023-05-21T04:42:38.706Z,28.38
2023-05-21T04:45:08.359Z,28.43
2023-05-21T04:47:38.275Z,28.65
2023-05-21T04:50:07.830Z,28.77
2023-05-21T04:52:38.275Z,28.74
2023-05-21T04:55:08.547Z,28.77
2023-05-21T04:57:37.036Z,28.21
2023-05-21T05:00:08.297Z,27.33
2023-05-21T05:02:39.744Z,26.41
2023-05-21T05:05:09.008Z,25.83
2023-05-21T05:07:37.528Z,25.56
2023-05-21T05:10:08.725Z,25.13
2023-05-21T05:12:36.914Z,24.49
2023-05-21T05:15:07.211Z,23.90
2023-05-21T05:17:35.342Z,23.41
2023-05-21T05:20:04.607Z,22.96
2023-05-21T05:22:35.365Z,22.66
2023-05-21T05:25:06.427Z,22.38
2023-05-21T05:27:36.993Z,22.27
2023-05-21T05:30:05.483Z,22.41
2023-05-21T05:32:38.476Z,22.73
2023-05-21T05:35:13.423Z,23.09
2023-05-21T05:37:41.947Z,23.53
2023-05-21T05:40:12.916Z,24.10
2023-05-21T05:42:40.838Z,24.44
2023-05-21T05:45:11.730Z,24.57
2023-05-21T05:47:41.278Z,24.74
2023-05-21T05:50:09.684Z,24.87
2023-05-21T05:52:37.759Z,25.13
2023-05-21T05:55:08.380Z,25.33
2023-05-21T05:57:36.290Z,25.71
2023-05-21T06:00:09.368Z,26.27
2023-05-21T06:02:39.199Z,26.67
2023-05-21T06:05:09.427Z,27.08
2023-05-21T06:10:34.636Z,27.79
2023-05-21T06:13:04.783Z,28.05
2023-05-21T06:15:33.706Z,28.21
2023-05-21T06:18:01.855Z,28.17
2023-05-21T06:20:36.763Z,27.88
2023-05-21T06:23:05.993Z,27.54
2023-05-21T06:25:34.426Z,27.44
2023-05-21T06:28:04.066Z,27.31
2023-05-21T06:30:32.311Z,27.50
2023-05-21T06:33:11.170Z,27.72
2023-05-21T06:35:49.575Z,27.78
2023-05-21T06:38:35.972Z,27.64
2023-05-21T06:41:03.884Z,27.75
2023-05-21T06:43:36.354Z,28.09
2023-05-21T06:46:24.223Z,28.31
2023-05-21T06:49:03.534Z,28.45
2023-05-21T06:51:31.422Z,28.45
2023-05-21T06:54:03.825Z,28.63
2023-05-21T06:56:31.654Z,28.75
2023-05-21T06:58:59.715Z,28.93
2023-05-21T07:01:28.480Z,28.77
2023-05-21T07:03:56.218Z,28.45
2023-05-21T07:06:27.305Z,28.39
2023-05-21T07:08:55.068Z,28.02
2023-05-21T07:11:24.787Z,27.97
2023-05-21T07:13:52.448Z,28.13
2023-05-21T07:16:20.501Z,28.54
2023-05-21T07:18:48.814Z,29.10
2023-05-21T07:21:16.693Z,28.77
2023-05-21T07:23:44.971Z,28.56
2023-05-21T07:26:13.060Z,28.39
2023-05-21T07:28:42.766Z,28.25
2023-05-21T07:31:12.699Z,27.91
2023-05-21T07:33:42.211Z,27.74
2023-05-21T07:36:11.133Z,27.72
2023-05-21T07:38:39.983Z,27.53
2023-05-21T07:41:11.454Z,27.20
2023-05-21T07:43:39.762Z,26.57
2023-05-21T07:46:07.732Z,26.17
2023-05-21T07:48:35.903Z,25.97
2023-05-21T07:51:04.599Z,25.94
2023-05-21T07:53:32.905Z,25.82
2023-05-21T07:56:02.171Z,25.99
2023-05-21T07:58:30.601Z,26.33
2023-05-21T08:00:58.324Z,26.73
2023-05-21T08:03:28.875Z,27.11
2023-05-21T08:05:58.077Z,27.29
2023-05-21T08:08:26.135Z,27.43
2023-05-21T08:10:54.897Z,27.69
2023-05-21T08:13:23.383Z,27.65
2023-05-21T08:15:53.413Z,27.61
2023-05-21T08:18:23.271Z,27.86
2023-05-21T08:20:51.368Z,28.14
2023-05-21T08:23:19.746Z,27.77
2023-05-21T08:25:49.804Z,27.59
2023-05-21T08:28:18.248Z,27.40
2023-05-21T08:33:58.807Z,27.38
2023-05-21T08:36:32.517Z,27.76
2023-05-21T08:39:14.404Z,28.13
2023-05-21T08:41:46.616Z,28.50
2023-05-21T08:58:07.325Z,30.06
2023-05-21T09:08:15.160Z,28.41
2023-05-21T09:11:12.988Z,28.15
2023-05-21T09:14:06.118Z,28.14
2023-05-21T09:23:36.910Z,28.61
2023-05-21T09:32:46.910Z,28.41
2023-05-21T09:38:34.621Z,28.41
2023-05-21T09:41:21.514Z,27.86
2023-05-21T09:47:13.644Z,27.11
2023-05-21T09:49:48.782Z,27.17
2023-05-21T09:52:27.266Z,27.20
2023-05-21T09:55:03.835Z,27.23
2023-05-21T09:57:55.492Z,26.98
2023-05-21T10:07:06.166Z,26.68
2023-05-21T10:10:32.118Z,26.72
2023-05-21T10:20:22.263Z,26.61
2023-05-21T10:23:02.768Z,26.50
2023-05-21T10:25:45.831Z,26.47
2023-05-21T10:28:36.840Z,26.58
2023-05-21T10:31:57.592Z,26.66
2023-05-21T10:34:43.819Z,26.68
2023-05-21T10:41:23.033Z,26.60
2023-05-21T10:44:32.694Z,26.96
2023-05-21T10:54:17.213Z,27.20
2023-05-21T11:00:24.835Z,26.74
2023-05-21T11:03:07.309Z,27.06
2023-05-21T11:09:41.067Z,27.32
2023-05-21T11:12:09.308Z,27.24
2023-05-21T11:14:44.141Z,27.23
2023-05-21T11:24:23.598Z,27.65
2023-05-21T11:30:29.454Z,27.41
2023-05-21T11:41:12.555Z,26.77
2023-05-21T13:23:56.927Z,26.28
2023-05-21T13:46:46.227Z,26.65
2023-05-21T14:13:15.446Z,26.52
2023-05-21T14:15:36.583Z,26.37
2023-05-21T14:18:34.681Z,26.40
2023-05-21T14:25:15.359Z,26.41
2023-05-21T14:28:13.054Z,26.26
2023-05-21T14:31:05.757Z,26.09
2023-05-21T14:59:46.402Z,25.53
2023-05-21T15:05:53.795Z,25.42
2023-05-21T15:09:06.993Z,25.44
2023-05-21T15:11:42.174Z,25.42
2023-05-21T15:11:43.831Z,25.29
2023-05-21T15:14:26.225Z,25.21
2023-05-21T15:20:19.647Z,24.80
2023-05-21T15:23:16.834Z,24.76
2023-05-21T15:26:08.535Z,24.86
2023-05-21T15:28:43.864Z,24.78
2023-05-21T15:31:37.913Z,24.61
2023-05-21T15:34:36.435Z,24.51
2023-05-21T15:37:08.139Z,24.30
2023-05-21T15:39:47.769Z,24.32
2023-05-21T15:42:17.065Z,24.28
2023-05-21T15:44:51.158Z,24.29
2023-05-21T15:47:19.826Z,24.29
2023-05-21T15:49:56.305Z,24.27
2023-05-21T15:52:25.388Z,24.22
2023-05-21T15:54:56.569Z,24.21
2023-05-21T15:57:27.556Z,24.18
2023-05-21T15:59:55.680Z,24.09
2023-05-21T16:02:24.033Z,24.10
2023-05-21T16:04:52.269Z,24.05
2023-05-21T16:07:20.769Z,24.02
2023-05-21T16:09:49.051Z,24.01
2023-05-21T16:12:17.391Z,24.04
2023-05-21T16:14:50.997Z,24.01
2023-05-21T16:17:20.255Z,23.97
2023-05-21T16:19:56.905Z,23.93
2023-05-21T16:22:29.833Z,23.90
2023-05-21T16:25:00.148Z,23.81
2023-05-21T16:27:38.248Z,23.75
2023-05-21T16:30:07.482Z,23.67
2023-05-21T16:32:40.086Z,23.58
2023-05-21T16:35:16.260Z,23.41
2023-05-21T16:37:44.493Z,23.33
2023-05-21T16:40:15.947Z,23.24
2023-05-21T16:42:47.128Z,23.17
2023-05-21T16:45:17.213Z,23.16
2023-05-21T16:47:52.169Z,23.06
2023-05-21T16:50:20.668Z,22.96
2023-05-21T16:53:03.464Z,22.78
2023-05-21T16:55:52.798Z,22.65
2023-05-21T16:58:49.414Z,22.55
2023-05-21T17:01:34.091Z,22.42
2023-05-21T17:05:05.318Z,22.27
2023-05-21T17:08:14.707Z,22.17
2023-05-21T17:10:55.414Z,22.04
2023-05-21T17:13:44.959Z,21.96
2023-05-21T17:16:12.886Z,21.86
2023-05-21T17:18:42.878Z,21.73
2023-05-21T17:21:10.958Z,21.58
2023-05-21T17:23:38.924Z,21.47
2023-05-21T17:26:09.129Z,21.38
2023-05-21T17:28:37.201Z,21.31
2023-05-21T17:31:08.617Z,21.21
2023-05-21T17:33:37.703Z,21.15
2023-05-21T17:36:06.084Z,21.08
2023-05-21T17:38:34.556Z,20.99
2023-05-21T17:41:05.640Z,20.93
2023-05-21T17:43:33.558Z,20.87
2023-05-21T17:46:01.564Z,20.80
2023-05-21T17:48:31.138Z,20.72
2023-05-21T17:51:01.170Z,20.67
2023-05-21T17:53:30.433Z,20.61
2023-05-21T17:55:58.652Z,20.54
2023-05-21T17:58:26.736Z,20.48
2023-05-21T18:00:55.799Z,20.44
2023-05-21T18:03:24.330Z,20.37
2023-05-21T18:05:52.978Z,20.31
2023-05-21T18:08:21.604Z,20.24
2023-05-21T18:10:49.559Z,20.18
2023-05-21T18:13:17.933Z,20.14
2023-05-21T18:15:45.918Z,20.07
2023-05-21T18:18:16.952Z,20.00
2023-05-21T18:20:45.603Z,19.97
2023-05-21T18:23:13.626Z,19.91
2023-05-21T18:25:41.662Z,19.85
2023-05-21T18:28:10.048Z,19.78
2023-05-21T18:30:37.973Z,19.70
2023-05-21T18:33:07.835Z,19.63
2023-05-21T18:35:35.761Z,19.53
2023-05-21T18:38:05.553Z,19.43
2023-05-21T18:40:33.459Z,19.37
2023-05-21T18:43:03.153Z,19.29
2023-05-21T18:45:31.141Z,19.21
2023-05-21T18:47:59.958Z,19.15
2023-05-21T18:50:27.812Z,19.07
2023-05-21T18:52:58.524Z,18.98
2023-05-21T18:55:31.280Z,18.90
2023-05-21T18:58:02.259Z,18.79
2023-05-21T19:00:30.088Z,18.73
2023-05-21T19:02:59.252Z,18.67
2023-05-21T19:05:27.782Z,18.64
2023-05-21T19:07:57.969Z,18.58
2023-05-21T19:10:25.714Z,18.56
2023-05-21T19:12:54.057Z,18.53
2023-05-21T19:15:22.386Z,18.51
2023-05-21T19:17:51.431Z,18.48
2023-05-21T19:20:24.480Z,18.44
2023-05-21T19:22:53.462Z,18.42
2023-05-21T19:25:21.582Z,18.39
2023-05-21T19:27:49.498Z,18.36
2023-05-21T19:30:17.879Z,18.34
2023-05-21T19:32:46.585Z,18.30
2023-05-21T19:35:16.192Z,18.28
2023-05-21T19:37:44.128Z,18.27
2023-05-21T19:40:16.175Z,18.26
2023-05-21T19:42:44.854Z,18.22
2023-05-21T19:45:15.244Z,18.20
2023-05-21T19:47:44.743Z,18.17
2023-05-21T19:50:12.946Z,18.13
2023-05-21T19:52:43.058Z,18.13
2023-05-21T19:55:13.659Z,18.09
2023-05-21T19:57:42.034Z,18.09
2023-05-21T20:00:11.544Z,18.08
2023-05-21T20:02:44.073Z,18.02
2023-05-21T20:05:12.219Z,18.06
2023-05-21T20:07:40.933Z,18.05
2023-05-21T20:10:10.604Z,18.05
2023-05-21T20:12:38.961Z,18.05
2023-05-21T20:15:08.262Z,18.04
2023-05-21T20:17:38.249Z,18.04
2023-05-21T20:20:09.215Z,18.03
2023-05-21T20:22:37.562Z,18.01
2023-05-21T20:25:08.274Z,18.00
2023-05-21T20:27:38.256Z,17.99
2023-05-21T20:30:08.088Z,17.95
2023-05-21T20:32:36.332Z,17.93
2023-05-21T20:35:04.858Z,17.89
2023-05-21T20:37:33.393Z,17.87
2023-05-21T20:40:01.719Z,17.80
2023-05-21T20:42:31.486Z,17.79
2023-05-21T20:44:59.479Z,17.73
2023-05-21T20:47:29.375Z,17.67
2023-05-21T20:49:59.605Z,17.60
2023-05-21T20:52:27.654Z,17.53
2023-05-21T20:54:57.378Z,17.46
2023-05-21T20:57:28.233Z,17.41
2023-05-21T20:59:56.498Z,17.36
2023-05-21T21:02:28.105Z,17.30
2023-05-21T21:04:57.332Z,17.26
2023-05-21T21:07:25.563Z,17.22
2023-05-21T21:09:53.676Z,17.14
2023-05-21T21:12:26.636Z,17.05
2023-05-21T21:14:51.410Z,16.97
2023-05-21T21:17:19.476Z,16.92
2023-05-21T21:19:49.008Z,16.89
2023-05-21T21:22:17.796Z,16.85
2023-05-21T21:24:45.985Z,16.82
2023-05-21T21:27:15.776Z,16.82
2023-05-21T21:29:44.533Z,16.79
2023-05-21T21:32:12.719Z,16.77
2023-05-21T21:34:40.742Z,16.74
2023-05-21T21:37:08.549Z,16.69
2023-05-21T21:39:38.252Z,16.66
2023-05-21T21:42:06.859Z,16.63
2023-05-21T21:44:34.763Z,16.63
2023-05-21T21:47:02.730Z,16.62
2023-05-21T21:49:31.134Z,16.58
2023-05-21T21:51:59.258Z,16.55
2023-05-21T21:54:27.340Z,16.51
2023-05-21T21:56:55.620Z,16.48
2023-05-21T21:59:23.840Z,16.43
2023-05-21T22:01:55.655Z,16.40
2023-05-21T22:04:23.766Z,16.35
2023-05-21T22:06:53.397Z,16.33
2023-05-21T22:09:24.304Z,16.31
2023-05-21T22:11:53.051Z,16.23
2023-05-21T22:14:21.115Z,16.24
2023-05-21T22:16:49.083Z,16.19
2023-05-21T22:19:19.027Z,16.13
2023-05-21T22:21:47.551Z,16.09
2023-05-21T22:24:30.959Z,16.05
2023-05-21T22:26:45.706Z,15.98
2023-05-21T22:29:13.609Z,15.93
2023-05-21T22:31:41.612Z,15.85
2023-05-21T22:34:09.497Z,15.79
2023-05-21T22:36:38.240Z,15.70
2023-05-21T22:39:06.037Z,15.62
2023-05-21T22:41:33.993Z,15.55
2023-05-21T22:44:01.904Z,15.50
2023-05-21T22:46:29.969Z,15.45
2023-05-21T22:48:57.807Z,15.41
2023-05-21T22:51:27.467Z,15.36
2023-05-21T22:53:55.688Z,15.31
2023-05-21T22:56:23.423Z,15.23
2023-05-21T22:58:51.512Z,15.17
2023-05-21T23:01:19.347Z,15.11
2023-05-21T23:03:47.230Z,15.03
2023-05-21T23:06:15.124Z,14.97
2023-05-21T23:08:42.895Z,14.88
2023-05-21T23:11:10.894Z,14.79
2023-05-21T23:13:38.741Z,14.73
2023-05-21T23:16:07.127Z,14.65
2023-05-21T23:18:35.270Z,14.60
2023-05-21T23:21:03.483Z,14.53
2023-05-21T23:23:31.600Z,14.47
2023-05-21T23:25:59.880Z,14.42
2023-05-21T23:28:27.787Z,14.35
2023-05-21T23:30:55.734Z,14.32
2023-05-21T23:33:23.605Z,14.27
2023-05-21T23:35:51.503Z,14.23
2023-05-21T23:38:19.362Z,14.20
2023-05-21T23:40:46.966Z,14.16
2023-05-21T23:43:14.613Z,14.11
2023-05-21T23:45:42.361Z,14.07
2023-05-21T23:48:10.071Z,14.02
2023-05-21T23:50:38.326Z,13.97
2023-05-21T23:53:06.399Z,13.92
2023-05-21T23:55:33.851Z,13.87
2023-05-21T23:58:03.414Z,13.83
